sensor_id;sensor_type;location;lat;lon;timestamp;P1;durP1;ratioP1;P2;durP2;ratioP2
10851;SDS011;5479;52.046;6.314;2023-07-28T00:01:12;14.15;;;12.23;;
10851;SDS011;5479;52.046;6.314;2023-07-28T00:03:40;14.00;;;11.87;;
10851;SDS011;5479;52.046;6.314;2023-07-28T00:06:08;14.85;;;12.57;;
10851;SDS011;5479;52.046;6.314;2023-07-28T00:08:37;13.95;;;11.93;;
10851;SDS011;5479;52.046;6.314;2023-07-28T00:11:08;14.55;;;12.05;;
10851;SDS011;5479;52.046;6.314;2023-07-28T00:13:37;14.57;;;12.55;;
10851;SDS011;5479;52.046;6.314;2023-07-28T00:16:07;14.30;;;12.32;;
10851;SDS011;5479;52.046;6.314;2023-07-28T00:18:36;17.63;;;13.77;;
10851;SDS011;5479;52.046;6.314;2023-07-28T00:21:04;14.50;;;12.93;;
10851;SDS011;5479;52.046;6.314;2023-07-28T00:23:32;16.55;;;13.45;;
10851;SDS011;5479;52.046;6.314;2023-07-28T00:26:00;16.02;;;13.18;;
10851;SDS011;5479;52.046;6.314;2023-07-28T00:28:28;16.15;;;13.52;;
10851;SDS011;5479;52.046;6.314;2023-07-28T00:30:56;14.30;;;12.55;;
10851;SDS011;5479;52.046;6.314;2023-07-28T00:33:26;18.10;;;14.27;;
10851;SDS011;5479;52.046;6.314;2023-07-28T00:35:54;17.88;;;13.95;;
10851;SDS011;5479;52.046;6.314;2023-07-28T00:38:23;15.68;;;13.98;;
10851;SDS011;5479;52.046;6.314;2023-07-28T00:40:52;16.60;;;14.18;;
10851;SDS011;5479;52.046;6.314;2023-07-28T00:43:20;19.42;;;14.65;;
10851;SDS011;5479;52.046;6.314;2023-07-28T00:45:48;16.63;;;13.70;;
10851;SDS011;5479;52.046;6.314;2023-07-28T00:48:16;17.98;;;14.43;;
10851;SDS011;5479;52.046;6.314;2023-07-28T00:50:48;19.45;;;13.98;;
10851;SDS011;5479;52.046;6.314;2023-07-28T00:53:17;18.85;;;15.13;;
10851;SDS011;5479;52.046;6.314;2023-07-28T00:55:48;17.15;;;13.90;;
10851;SDS011;5479;52.046;6.314;2023-07-28T00:58:16;18.63;;;15.00;;
10851;SDS011;5479;52.046;6.314;2023-07-28T01:00:44;18.92;;;15.13;;
10851;SDS011;5479;52.046;6.314;2023-07-28T01:03:12;18.83;;;14.85;;
10851;SDS011;5479;52.046;6.314;2023-07-28T01:05:42;18.20;;;15.02;;
10851;SDS011;5479;52.046;6.314;2023-07-28T01:08:19;17.73;;;14.50;;
10851;SDS011;5479;52.046;6.314;2023-07-28T01:10:54;18.60;;;15.15;;
10851;SDS011;5479;52.046;6.314;2023-07-28T01:13:22;18.85;;;14.80;;
10851;SDS011;5479;52.046;6.314;2023-07-28T01:15:50;17.63;;;13.82;;
10851;SDS011;5479;52.046;6.314;2023-07-28T01:18:18;18.50;;;13.93;;
10851;SDS011;5479;52.046;6.314;2023-07-28T01:20:46;17.13;;;13.95;;
10851;SDS011;5479;52.046;6.314;2023-07-28T01:23:26;19.45;;;13.98;;
10851;SDS011;5479;52.046;6.314;2023-07-28T01:26:05;16.05;;;13.13;;
10851;SDS011;5479;52.046;6.314;2023-07-28T01:28:37;16.67;;;13.07;;
10851;SDS011;5479;52.046;6.314;2023-07-28T01:31:07;17.48;;;13.73;;
10851;SDS011;5479;52.046;6.314;2023-07-28T01:33:37;16.75;;;13.35;;
10851;SDS011;5479;52.046;6.314;2023-07-28T01:36:06;16.42;;;13.23;;
10851;SDS011;5479;52.046;6.314;2023-07-28T01:38:34;18.15;;;13.75;;
10851;SDS011;5479;52.046;6.314;2023-07-28T01:41:02;18.83;;;13.93;;
10851;SDS011;5479;52.046;6.314;2023-07-28T01:43:30;18.00;;;13.15;;
10851;SDS011;5479;52.046;6.314;2023-07-28T01:45:59;19.65;;;14.50;;
10851;SDS011;5479;52.046;6.314;2023-07-28T01:48:27;20.92;;;14.57;;
10851;SDS011;5479;52.046;6.314;2023-07-28T01:50:55;18.88;;;14.57;;
10851;SDS011;5479;52.046;6.314;2023-07-28T01:53:23;19.50;;;13.98;;
10851;SDS011;5479;52.046;6.314;2023-07-28T01:55:52;18.85;;;14.88;;
10851;SDS011;5479;52.046;6.314;2023-07-28T01:58:19;21.20;;;15.63;;
10851;SDS011;5479;52.046;6.314;2023-07-28T02:00:47;20.80;;;15.35;;
10851;SDS011;5479;52.046;6.314;2023-07-28T02:03:18;20.58;;;15.10;;
10851;SDS011;5479;52.046;6.314;2023-07-28T02:05:46;21.90;;;16.65;;
10851;SDS011;5479;52.046;6.314;2023-07-28T02:08:14;19.63;;;14.98;;
10851;SDS011;5479;52.046;6.314;2023-07-28T02:10:42;22.13;;;15.93;;
10851;SDS011;5479;52.046;6.314;2023-07-28T02:13:10;23.85;;;15.68;;
10851;SDS011;5479;52.046;6.314;2023-07-28T02:15:39;20.08;;;15.70;;
10851;SDS011;5479;52.046;6.314;2023-07-28T02:18:08;22.35;;;16.35;;
10851;SDS011;5479;52.046;6.314;2023-07-28T02:20:39;21.25;;;16.58;;
10851;SDS011;5479;52.046;6.314;2023-07-28T02:23:07;23.00;;;15.70;;
10851;SDS011;5479;52.046;6.314;2023-07-28T02:25:35;23.27;;;15.73;;
10851;SDS011;5479;52.046;6.314;2023-07-28T02:28:03;20.88;;;16.38;;
10851;SDS011;5479;52.046;6.314;2023-07-28T02:30:31;23.85;;;16.40;;
10851;SDS011;5479;52.046;6.314;2023-07-28T02:32:59;23.83;;;17.92;;
10851;SDS011;5479;52.046;6.314;2023-07-28T02:35:27;22.65;;;17.50;;
10851;SDS011;5479;52.046;6.314;2023-07-28T02:37:56;24.23;;;16.77;;
10851;SDS011;5479;52.046;6.314;2023-07-28T02:40:24;24.88;;;16.35;;
10851;SDS011;5479;52.046;6.314;2023-07-28T02:42:52;24.90;;;17.70;;
10851;SDS011;5479;52.046;6.314;2023-07-28T02:45:20;24.08;;;16.90;;
10851;SDS011;5479;52.046;6.314;2023-07-28T02:47:48;23.98;;;16.88;;
10851;SDS011;5479;52.046;6.314;2023-07-28T02:50:17;28.52;;;16.83;;
10851;SDS011;5479;52.046;6.314;2023-07-28T02:52:45;26.40;;;17.05;;
10851;SDS011;5479;52.046;6.314;2023-07-28T02:55:14;25.65;;;17.40;;
10851;SDS011;5479;52.046;6.314;2023-07-28T02:57:42;25.27;;;17.02;;
10851;SDS011;5479;52.046;6.314;2023-07-28T03:00:10;26.85;;;17.70;;
10851;SDS011;5479;52.046;6.314;2023-07-28T03:02:39;27.65;;;18.35;;
10851;SDS011;5479;52.046;6.314;2023-07-28T03:05:07;25.33;;;17.73;;
10851;SDS011;5479;52.046;6.314;2023-07-28T03:07:36;28.45;;;17.95;;
10851;SDS011;5479;52.046;6.314;2023-07-28T03:10:04;25.35;;;17.45;;
10851;SDS011;5479;52.046;6.314;2023-07-28T03:12:34;30.45;;;18.77;;
10851;SDS011;5479;52.046;6.314;2023-07-28T03:15:03;27.90;;;18.25;;
10851;SDS011;5479;52.046;6.314;2023-07-28T03:17:31;29.42;;;18.65;;
10851;SDS011;5479;52.046;6.314;2023-07-28T03:19:59;27.95;;;18.90;;
10851;SDS011;5479;52.046;6.314;2023-07-28T03:22:27;30.88;;;18.15;;
10851;SDS011;5479;52.046;6.314;2023-07-28T03:24:55;28.30;;;18.33;;
10851;SDS011;5479;52.046;6.314;2023-07-28T03:27:23;25.85;;;17.45;;
10851;SDS011;5479;52.046;6.314;2023-07-28T03:29:53;24.60;;;17.83;;
10851;SDS011;5479;52.046;6.314;2023-07-28T03:32:21;28.40;;;18.85;;
10851;SDS011;5479;52.046;6.314;2023-07-28T03:34:49;30.13;;;19.08;;
10851;SDS011;5479;52.046;6.314;2023-07-28T03:37:17;28.80;;;19.02;;
10851;SDS011;5479;52.046;6.314;2023-07-28T03:39:45;28.02;;;19.05;;
10851;SDS011;5479;52.046;6.314;2023-07-28T03:42:13;30.35;;;19.02;;
10851;SDS011;5479;52.046;6.314;2023-07-28T03:44:42;31.88;;;20.27;;
10851;SDS011;5479;52.046;6.314;2023-07-28T03:47:11;29.33;;;18.52;;
10851;SDS011;5479;52.046;6.314;2023-07-28T03:49:39;31.10;;;19.15;;
10851;SDS011;5479;52.046;6.314;2023-07-28T03:52:07;30.55;;;20.02;;
10851;SDS011;5479;52.046;6.314;2023-07-28T03:54:35;36.55;;;20.88;;
10851;SDS011;5479;52.046;6.314;2023-07-28T03:57:03;34.15;;;20.75;;
10851;SDS011;5479;52.046;6.314;2023-07-28T03:59:32;34.78;;;21.48;;
10851;SDS011;5479;52.046;6.314;2023-07-28T04:02:00;36.28;;;21.05;;
10851;SDS011;5479;52.046;6.314;2023-07-28T04:04:29;38.35;;;22.35;;
10851;SDS011;5479;52.046;6.314;2023-07-28T04:06:57;36.72;;;22.63;;
10851;SDS011;5479;52.046;6.314;2023-07-28T04:09:25;38.03;;;22.65;;
10851;SDS011;5479;52.046;6.314;2023-07-28T04:11:53;34.97;;;21.90;;
10851;SDS011;5479;52.046;6.314;2023-07-28T04:14:21;40.85;;;22.52;;
10851;SDS011;5479;52.046;6.314;2023-07-28T04:16:48;38.22;;;23.58;;
10851;SDS011;5479;52.046;6.314;2023-07-28T04:19:16;41.22;;;23.25;;
10851;SDS011;5479;52.046;6.314;2023-07-28T04:21:46;39.00;;;22.27;;
10851;SDS011;5479;52.046;6.314;2023-07-28T04:24:14;42.08;;;23.33;;
10851;SDS011;5479;52.046;6.314;2023-07-28T04:26:42;35.90;;;22.27;;
10851;SDS011;5479;52.046;6.314;2023-07-28T04:29:10;40.55;;;23.13;;
10851;SDS011;5479;52.046;6.314;2023-07-28T04:31:38;34.38;;;21.83;;
10851;SDS011;5479;52.046;6.314;2023-07-28T04:34:06;38.45;;;23.30;;
10851;SDS011;5479;52.046;6.314;2023-07-28T04:36:34;43.58;;;23.30;;
10851;SDS011;5479;52.046;6.314;2023-07-28T04:39:04;40.95;;;23.38;;
10851;SDS011;5479;52.046;6.314;2023-07-28T04:41:32;35.42;;;22.45;;
10851;SDS011;5479;52.046;6.314;2023-07-28T04:44:01;40.42;;;23.45;;
10851;SDS011;5479;52.046;6.314;2023-07-28T04:46:29;38.72;;;23.45;;
10851;SDS011;5479;52.046;6.314;2023-07-28T04:48:56;36.92;;;20.85;;
10851;SDS011;5479;52.046;6.314;2023-07-28T04:51:24;39.95;;;22.05;;
10851;SDS011;5479;52.046;6.314;2023-07-28T04:53:52;40.13;;;23.05;;
10851;SDS011;5479;52.046;6.314;2023-07-28T04:56:22;43.00;;;22.60;;
10851;SDS011;5479;52.046;6.314;2023-07-28T04:58:51;35.17;;;21.27;;
10851;SDS011;5479;52.046;6.314;2023-07-28T05:01:19;43.63;;;24.13;;
10851;SDS011;5479;52.046;6.314;2023-07-28T05:03:47;38.80;;;22.23;;
10851;SDS011;5479;52.046;6.314;2023-07-28T05:06:15;40.75;;;21.98;;
10851;SDS011;5479;52.046;6.314;2023-07-28T05:08:44;33.03;;;20.60;;
10851;SDS011;5479;52.046;6.314;2023-07-28T05:11:12;38.10;;;22.58;;
10851;SDS011;5479;52.046;6.314;2023-07-28T05:13:41;37.40;;;21.38;;
10851;SDS011;5479;52.046;6.314;2023-07-28T05:16:09;34.78;;;20.15;;
10851;SDS011;5479;52.046;6.314;2023-07-28T05:18:37;33.22;;;19.08;;
10851;SDS011;5479;52.046;6.314;2023-07-28T05:21:05;31.48;;;18.83;;
10851;SDS011;5479;52.046;6.314;2023-07-28T05:23:33;32.25;;;19.13;;
10851;SDS011;5479;52.046;6.314;2023-07-28T05:26:01;35.50;;;19.85;;
10851;SDS011;5479;52.046;6.314;2023-07-28T05:28:31;30.40;;;19.27;;
10851;SDS011;5479;52.046;6.314;2023-07-28T05:31:07;35.33;;;20.23;;
10851;SDS011;5479;52.046;6.314;2023-07-28T05:33:38;33.55;;;18.77;;
10851;SDS011;5479;52.046;6.314;2023-07-28T05:36:10;35.30;;;20.42;;
10851;SDS011;5479;52.046;6.314;2023-07-28T05:38:38;32.22;;;19.60;;
10851;SDS011;5479;52.046;6.314;2023-07-28T05:41:06;34.22;;;20.00;;
10851;SDS011;5479;52.046;6.314;2023-07-28T05:43:38;31.27;;;19.05;;
10851;SDS011;5479;52.046;6.314;2023-07-28T05:46:07;30.63;;;19.15;;
10851;SDS011;5479;52.046;6.314;2023-07-28T05:48:37;31.85;;;18.77;;
10851;SDS011;5479;52.046;6.314;2023-07-28T05:51:05;30.98;;;18.33;;
10851;SDS011;5479;52.046;6.314;2023-07-28T05:53:31;33.08;;;18.67;;
10851;SDS011;5479;52.046;6.314;2023-07-28T05:56:00;28.70;;;18.52;;
10851;SDS011;5479;52.046;6.314;2023-07-28T05:58:31;28.15;;;18.27;;
10851;SDS011;5479;52.046;6.314;2023-07-28T06:01:00;33.92;;;19.80;;
10851;SDS011;5479;52.046;6.314;2023-07-28T06:03:29;30.65;;;20.02;;
10851;SDS011;5479;52.046;6.314;2023-07-28T06:06:08;33.78;;;20.27;;
10851;SDS011;5479;52.046;6.314;2023-07-28T06:08:36;33.97;;;20.70;;
10851;SDS011;5479;52.046;6.314;2023-07-28T06:11:03;32.47;;;19.45;;
10851;SDS011;5479;52.046;6.314;2023-07-28T06:13:32;30.33;;;20.30;;
10851;SDS011;5479;52.046;6.314;2023-07-28T06:16:01;32.20;;;19.27;;
10851;SDS011;5479;52.046;6.314;2023-07-28T06:18:35;30.80;;;20.08;;
10851;SDS011;5479;52.046;6.314;2023-07-28T06:21:06;34.25;;;20.50;;
10851;SDS011;5479;52.046;6.314;2023-07-28T06:23:34;36.53;;;21.15;;
10851;SDS011;5479;52.046;6.314;2023-07-28T06:26:02;33.90;;;20.17;;
10851;SDS011;5479;52.046;6.314;2023-07-28T06:28:30;35.70;;;21.02;;
10851;SDS011;5479;52.046;6.314;2023-07-28T06:30:58;38.95;;;21.42;;
10851;SDS011;5479;52.046;6.314;2023-07-28T06:33:27;41.25;;;21.77;;
10851;SDS011;5479;52.046;6.314;2023-07-28T06:35:57;38.83;;;22.67;;
10851;SDS011;5479;52.046;6.314;2023-07-28T06:38:25;39.30;;;22.38;;
10851;SDS011;5479;52.046;6.314;2023-07-28T06:40:53;38.03;;;22.52;;
10851;SDS011;5479;52.046;6.314;2023-07-28T06:43:21;34.20;;;20.80;;
10851;SDS011;5479;52.046;6.314;2023-07-28T06:45:50;31.33;;;21.27;;
10851;SDS011;5479;52.046;6.314;2023-07-28T06:48:18;32.05;;;21.15;;
10851;SDS011;5479;52.046;6.314;2023-07-28T06:50:46;31.65;;;20.63;;
10851;SDS011;5479;52.046;6.314;2023-07-28T06:53:16;33.90;;;20.73;;
10851;SDS011;5479;52.046;6.314;2023-07-28T06:55:46;32.80;;;19.63;;
10851;SDS011;5479;52.046;6.314;2023-07-28T06:58:14;31.83;;;20.50;;
10851;SDS011;5479;52.046;6.314;2023-07-28T07:00:43;28.88;;;19.10;;
10851;SDS011;5479;52.046;6.314;2023-07-28T07:03:12;28.42;;;20.10;;
10851;SDS011;5479;52.046;6.314;2023-07-28T07:05:40;30.70;;;19.88;;
10851;SDS011;5479;52.046;6.314;2023-07-28T07:08:10;26.67;;;17.80;;
10851;SDS011;5479;52.046;6.314;2023-07-28T07:10:46;27.25;;;18.38;;
10851;SDS011;5479;52.046;6.314;2023-07-28T07:13:15;29.23;;;18.58;;
10851;SDS011;5479;52.046;6.314;2023-07-28T07:15:43;27.15;;;17.77;;
10851;SDS011;5479;52.046;6.314;2023-07-28T07:18:12;26.05;;;17.83;;
10851;SDS011;5479;52.046;6.314;2023-07-28T07:20:41;25.80;;;18.50;;
10851;SDS011;5479;52.046;6.314;2023-07-28T07:23:09;26.73;;;17.23;;
10851;SDS011;5479;52.046;6.314;2023-07-28T07:25:41;24.50;;;16.58;;
10851;SDS011;5479;52.046;6.314;2023-07-28T07:28:09;22.35;;;16.25;;
10851;SDS011;5479;52.046;6.314;2023-07-28T07:30:37;23.33;;;16.63;;
10851;SDS011;5479;52.046;6.314;2023-07-28T07:33:06;21.63;;;16.55;;
10851;SDS011;5479;52.046;6.314;2023-07-28T07:35:35;24.30;;;16.88;;
10851;SDS011;5479;52.046;6.314;2023-07-28T07:38:04;22.23;;;15.63;;
10851;SDS011;5479;52.046;6.314;2023-07-28T07:40:35;23.70;;;16.33;;
10851;SDS011;5479;52.046;6.314;2023-07-28T07:43:04;21.35;;;16.38;;
10851;SDS011;5479;52.046;6.314;2023-07-28T07:45:34;22.45;;;16.92;;
10851;SDS011;5479;52.046;6.314;2023-07-28T07:48:03;21.13;;;17.25;;
10851;SDS011;5479;52.046;6.314;2023-07-28T07:50:31;24.67;;;16.98;;
10851;SDS011;5479;52.046;6.314;2023-07-28T07:52:59;22.90;;;16.27;;
10851;SDS011;5479;52.046;6.314;2023-07-28T07:55:27;26.02;;;17.45;;
10851;SDS011;5479;52.046;6.314;2023-07-28T07:57:55;21.85;;;17.45;;
10851;SDS011;5479;52.046;6.314;2023-07-28T08:00:25;23.25;;;16.55;;
10851;SDS011;5479;52.046;6.314;2023-07-28T08:02:53;22.35;;;16.83;;
10851;SDS011;5479;52.046;6.314;2023-07-28T08:05:22;21.10;;;16.45;;
10851;SDS011;5479;52.046;6.314;2023-07-28T08:07:50;25.42;;;18.08;;
10851;SDS011;5479;52.046;6.314;2023-07-28T08:10:18;24.85;;;16.70;;
10851;SDS011;5479;52.046;6.314;2023-07-28T08:12:46;22.13;;;16.90;;
10851;SDS011;5479;52.046;6.314;2023-07-28T08:15:14;19.92;;;16.20;;
10851;SDS011;5479;52.046;6.314;2023-07-28T08:17:45;20.15;;;15.50;;
10851;SDS011;5479;52.046;6.314;2023-07-28T08:20:13;19.50;;;15.25;;
10851;SDS011;5479;52.046;6.314;2023-07-28T08:22:41;18.48;;;15.10;;
10851;SDS011;5479;52.046;6.314;2023-07-28T08:25:10;18.75;;;14.65;;
10851;SDS011;5479;52.046;6.314;2023-07-28T08:27:38;17.60;;;13.15;;
10851;SDS011;5479;52.046;6.314;2023-07-28T08:30:07;15.65;;;12.55;;
10851;SDS011;5479;52.046;6.314;2023-07-28T08:32:36;16.38;;;11.70;;
10851;SDS011;5479;52.046;6.314;2023-07-28T08:35:06;16.02;;;11.52;;
10851;SDS011;5479;52.046;6.314;2023-07-28T08:37:34;14.88;;;11.10;;
10851;SDS011;5479;52.046;6.314;2023-07-28T08:40:03;13.90;;;10.98;;
10851;SDS011;5479;52.046;6.314;2023-07-28T08:42:36;14.32;;;11.18;;
10851;SDS011;5479;52.046;6.314;2023-07-28T08:45:05;12.60;;;10.32;;
10851;SDS011;5479;52.046;6.314;2023-07-28T08:47:35;12.02;;;9.82;;
10851;SDS011;5479;52.046;6.314;2023-07-28T08:50:06;12.93;;;10.00;;
10851;SDS011;5479;52.046;6.314;2023-07-28T08:52:34;10.30;;;9.20;;
10851;SDS011;5479;52.046;6.314;2023-07-28T08:55:02;12.45;;;9.80;;
10851;SDS011;5479;52.046;6.314;2023-07-28T08:57:33;11.80;;;9.75;;
10851;SDS011;5479;52.046;6.314;2023-07-28T09:00:07;13.20;;;10.23;;
10851;SDS011;5479;52.046;6.314;2023-07-28T09:02:40;12.75;;;10.77;;
10851;SDS011;5479;52.046;6.314;2023-07-28T09:05:17;15.20;;;11.13;;
10851;SDS011;5479;52.046;6.314;2023-07-28T09:07:47;16.38;;;10.20;;
10851;SDS011;5479;52.046;6.314;2023-07-28T09:10:15;13.93;;;11.15;;
10851;SDS011;5479;52.046;6.314;2023-07-28T09:12:44;13.85;;;9.57;;
10851;SDS011;5479;52.046;6.314;2023-07-28T09:15:13;11.95;;;10.65;;
10851;SDS011;5479;52.046;6.314;2023-07-28T09:17:43;12.98;;;10.00;;
10851;SDS011;5479;52.046;6.314;2023-07-28T09:20:16;14.13;;;10.63;;
10851;SDS011;5479;52.046;6.314;2023-07-28T09:22:43;13.75;;;10.55;;
10851;SDS011;5479;52.046;6.314;2023-07-28T09:25:13;13.68;;;10.90;;
10851;SDS011;5479;52.046;6.314;2023-07-28T09:27:49;14.50;;;10.13;;
10851;SDS011;5479;52.046;6.314;2023-07-28T09:30:20;14.85;;;12.15;;
10851;SDS011;5479;52.046;6.314;2023-07-28T09:32:49;15.75;;;12.27;;
10851;SDS011;5479;52.046;6.314;2023-07-28T09:35:21;16.30;;;11.88;;
10851;SDS011;5479;52.046;6.314;2023-07-28T09:37:51;14.52;;;10.95;;
10851;SDS011;5479;52.046;6.314;2023-07-28T09:40:22;14.57;;;12.70;;
10851;SDS011;5479;52.046;6.314;2023-07-28T09:42:51;15.35;;;12.75;;
10851;SDS011;5479;52.046;6.314;2023-07-28T09:45:21;14.80;;;12.98;;
10851;SDS011;5479;52.046;6.314;2023-07-28T09:47:50;14.60;;;12.95;;
10851;SDS011;5479;52.046;6.314;2023-07-28T09:50:27;13.68;;;11.48;;
10851;SDS011;5479;52.046;6.314;2023-07-28T09:53:03;17.95;;;12.63;;
10851;SDS011;5479;52.046;6.314;2023-07-28T09:55:31;15.55;;;13.32;;
10851;SDS011;5479;52.046;6.314;2023-07-28T09:58:03;13.88;;;12.10;;
10851;SDS011;5479;52.046;6.314;2023-07-28T10:00:33;13.93;;;12.02;;
10851;SDS011;5479;52.046;6.314;2023-07-28T10:03:02;13.10;;;11.70;;
10851;SDS011;5479;52.046;6.314;2023-07-28T10:05:33;15.95;;;12.52;;
10851;SDS011;5479;52.046;6.314;2023-07-28T10:08:02;15.18;;;12.10;;
10851;SDS011;5479;52.046;6.314;2023-07-28T10:10:32;16.42;;;11.85;;
10851;SDS011;5479;52.046;6.314;2023-07-28T10:13:02;14.60;;;11.60;;
10851;SDS011;5479;52.046;6.314;2023-07-28T10:15:31;13.30;;;11.35;;
10851;SDS011;5479;52.046;6.314;2023-07-28T10:17:59;12.88;;;10.70;;
10851;SDS011;5479;52.046;6.314;2023-07-28T10:20:29;12.43;;;11.23;;
10851;SDS011;5479;52.046;6.314;2023-07-28T10:23:04;12.32;;;10.15;;
10851;SDS011;5479;52.046;6.314;2023-07-28T10:25:34;11.55;;;9.45;;
10851;SDS011;5479;52.046;6.314;2023-07-28T10:28:03;12.23;;;10.18;;
10851;SDS011;5479;52.046;6.314;2023-07-28T10:30:36;11.15;;;9.95;;
10851;SDS011;5479;52.046;6.314;2023-07-28T10:33:06;11.13;;;8.98;;
10851;SDS011;5479;52.046;6.314;2023-07-28T10:35:35;10.07;;;9.07;;
10851;SDS011;5479;52.046;6.314;2023-07-28T10:38:31;10.60;;;9.57;;
10851;SDS011;5479;52.046;6.314;2023-07-28T10:41:07;11.40;;;9.98;;
10851;SDS011;5479;52.046;6.314;2023-07-28T10:43:36;12.45;;;10.02;;
10851;SDS011;5479;52.046;6.314;2023-07-28T10:46:05;13.05;;;9.88;;
10851;SDS011;5479;52.046;6.314;2023-07-28T10:48:35;10.93;;;9.82;;
10851;SDS011;5479;52.046;6.314;2023-07-28T10:51:05;12.43;;;10.60;;
10851;SDS011;5479;52.046;6.314;2023-07-28T10:53:35;10.55;;;9.43;;
10851;SDS011;5479;52.046;6.314;2023-07-28T10:56:03;10.82;;;9.73;;
10851;SDS011;5479;52.046;6.314;2023-07-28T10:58:37;11.77;;;10.57;;
10851;SDS011;5479;52.046;6.314;2023-07-28T11:01:05;10.70;;;9.60;;
10851;SDS011;5479;52.046;6.314;2023-07-28T11:03:33;11.82;;;9.95;;
10851;SDS011;5479;52.046;6.314;2023-07-28T11:06:01;10.95;;;9.73;;
10851;SDS011;5479;52.046;6.314;2023-07-28T11:08:32;9.55;;;8.18;;
10851;SDS011;5479;52.046;6.314;2023-07-28T11:11:03;9.15;;;8.13;;
10851;SDS011;5479;52.046;6.314;2023-07-28T11:13:33;10.23;;;8.88;;
10851;SDS011;5479;52.046;6.314;2023-07-28T11:16:02;9.35;;;8.45;;
10851;SDS011;5479;52.046;6.314;2023-07-28T11:18:31;9.25;;;8.35;;
10851;SDS011;5479;52.046;6.314;2023-07-28T11:20:59;9.93;;;8.90;;
10851;SDS011;5479;52.046;6.314;2023-07-28T11:23:27;9.93;;;8.35;;
10851;SDS011;5479;52.046;6.314;2023-07-28T11:25:55;10.38;;;9.27;;
10851;SDS011;5479;52.046;6.314;2023-07-28T11:28:24;10.82;;;9.73;;
10851;SDS011;5479;52.046;6.314;2023-07-28T11:30:53;9.63;;;8.30;;
10851;SDS011;5479;52.046;6.314;2023-07-28T11:33:24;11.82;;;8.82;;
10851;SDS011;5479;52.046;6.314;2023-07-28T11:35:52;13.02;;;10.32;;
10851;SDS011;5479;52.046;6.314;2023-07-28T11:38:20;12.57;;;10.88;;
10851;SDS011;5479;52.046;6.314;2023-07-28T11:40:49;10.48;;;9.23;;
10851;SDS011;5479;52.046;6.314;2023-07-28T11:43:18;11.20;;;10.10;;
10851;SDS011;5479;52.046;6.314;2023-07-28T11:45:47;10.27;;;9.23;;
10851;SDS011;5479;52.046;6.314;2023-07-28T11:48:15;10.18;;;9.18;;
10851;SDS011;5479;52.046;6.314;2023-07-28T11:50:47;10.77;;;9.45;;
10851;SDS011;5479;52.046;6.314;2023-07-28T11:53:17;11.02;;;9.93;;
10851;SDS011;5479;52.046;6.314;2023-07-28T11:55:45;11.98;;;10.73;;
10851;SDS011;5479;52.046;6.314;2023-07-28T11:58:13;11.18;;;10.07;;
10851;SDS011;5479;52.046;6.314;2023-07-28T12:00:42;9.80;;;8.80;;
10851;SDS011;5479;52.046;6.314;2023-07-28T12:03:12;10.90;;;9.80;;
10851;SDS011;5479;52.046;6.314;2023-07-28T12:05:41;10.07;;;8.88;;
10851;SDS011;5479;52.046;6.314;2023-07-28T12:08:33;9.07;;;8.18;;
10851;SDS011;5479;52.046;6.314;2023-07-28T12:11:01;12.15;;;8.95;;
10851;SDS011;5479;52.046;6.314;2023-07-28T12:13:29;8.60;;;7.63;;
10851;SDS011;5479;52.046;6.314;2023-07-28T12:15:57;11.02;;;8.02;;
10851;SDS011;5479;52.046;6.314;2023-07-28T12:18:29;11.35;;;8.90;;
10851;SDS011;5479;52.046;6.314;2023-07-28T12:20:58;9.85;;;8.75;;
10851;SDS011;5479;52.046;6.314;2023-07-28T12:23:26;10.00;;;8.30;;
10851;SDS011;5479;52.046;6.314;2023-07-28T12:25:54;9.23;;;8.23;;
10851;SDS011;5479;52.046;6.314;2023-07-28T12:28:24;8.88;;;7.47;;
10851;SDS011;5479;52.046;6.314;2023-07-28T12:30:52;8.63;;;7.20;;
10851;SDS011;5479;52.046;6.314;2023-07-28T12:33:22;8.95;;;7.35;;
10851;SDS011;5479;52.046;6.314;2023-07-28T12:35:53;7.60;;;6.53;;
10851;SDS011;5479;52.046;6.314;2023-07-28T12:38:21;7.75;;;6.35;;
10851;SDS011;5479;52.046;6.314;2023-07-28T12:40:49;8.23;;;6.90;;
10851;SDS011;5479;52.046;6.314;2023-07-28T12:43:18;8.50;;;6.28;;
10851;SDS011;5479;52.046;6.314;2023-07-28T12:45:46;8.23;;;6.57;;
10851;SDS011;5479;52.046;6.314;2023-07-28T12:48:14;7.68;;;6.40;;
10851;SDS011;5479;52.046;6.314;2023-07-28T12:50:42;6.65;;;5.47;;
10851;SDS011;5479;52.046;6.314;2023-07-28T12:53:12;8.65;;;6.55;;
10851;SDS011;5479;52.046;6.314;2023-07-28T12:55:40;8.23;;;7.03;;
10851;SDS011;5479;52.046;6.314;2023-07-28T12:58:08;9.85;;;7.30;;
10851;SDS011;5479;52.046;6.314;2023-07-28T13:00:36;8.88;;;7.57;;
10851;SDS011;5479;52.046;6.314;2023-07-28T13:03:07;9.98;;;7.63;;
10851;SDS011;5479;52.046;6.314;2023-07-28T13:05:36;7.68;;;6.40;;
10851;SDS011;5479;52.046;6.314;2023-07-28T13:08:04;9.77;;;6.20;;
10851;SDS011;5479;52.046;6.314;2023-07-28T13:10:33;7.78;;;6.45;;
10851;SDS011;5479;52.046;6.314;2023-07-28T13:13:01;7.65;;;6.78;;
10851;SDS011;5479;52.046;6.314;2023-07-28T13:15:29;8.60;;;6.85;;
10851;SDS011;5479;52.046;6.314;2023-07-28T13:17:59;7.93;;;6.90;;
10851;SDS011;5479;52.046;6.314;2023-07-28T13:20:27;8.88;;;6.75;;
10851;SDS011;5479;52.046;6.314;2023-07-28T13:22:55;8.20;;;7.03;;
10851;SDS011;5479;52.046;6.314;2023-07-28T13:25:23;8.00;;;6.78;;
10851;SDS011;5479;52.046;6.314;2023-07-28T13:27:52;8.07;;;7.25;;
10851;SDS011;5479;52.046;6.314;2023-07-28T13:30:20;8.77;;;7.88;;
10851;SDS011;5479;52.046;6.314;2023-07-28T13:32:51;8.85;;;7.50;;
10851;SDS011;5479;52.046;6.314;2023-07-28T13:35:19;7.70;;;6.57;;
10851;SDS011;5479;52.046;6.314;2023-07-28T13:37:47;7.82;;;6.25;;
10851;SDS011;5479;52.046;6.314;2023-07-28T13:40:15;7.55;;;6.40;;
10851;SDS011;5479;52.046;6.314;2023-07-28T13:42:43;7.80;;;6.50;;
10851;SDS011;5479;52.046;6.314;2023-07-28T13:45:12;7.75;;;6.50;;
10851;SDS011;5479;52.046;6.314;2023-07-28T13:47:40;9.77;;;6.43;;
10851;SDS011;5479;52.046;6.314;2023-07-28T13:50:08;7.68;;;6.30;;
10851;SDS011;5479;52.046;6.314;2023-07-28T13:52:36;8.00;;;6.20;;
10851;SDS011;5479;52.046;6.314;2023-07-28T13:55:04;6.60;;;5.78;;
10851;SDS011;5479;52.046;6.314;2023-07-28T13:57:33;8.02;;;6.75;;
10851;SDS011;5479;52.046;6.314;2023-07-28T14:00:01;8.90;;;6.57;;
10851;SDS011;5479;52.046;6.314;2023-07-28T14:02:31;8.63;;;6.63;;
10851;SDS011;5479;52.046;6.314;2023-07-28T14:04:59;7.80;;;6.07;;
10851;SDS011;5479;52.046;6.314;2023-07-28T14:07:27;8.10;;;5.85;;
10851;SDS011;5479;52.046;6.314;2023-07-28T14:09:55;8.15;;;5.72;;
10851;SDS011;5479;52.046;6.314;2023-07-28T14:12:23;8.18;;;6.25;;
10851;SDS011;5479;52.046;6.314;2023-07-28T14:14:53;7.50;;;5.80;;
10851;SDS011;5479;52.046;6.314;2023-07-28T14:17:21;7.28;;;5.97;;
10851;SDS011;5479;52.046;6.314;2023-07-28T14:19:50;7.15;;;5.72;;
10851;SDS011;5479;52.046;6.314;2023-07-28T14:22:19;5.82;;;4.55;;
10851;SDS011;5479;52.046;6.314;2023-07-28T14:24:48;7.97;;;4.95;;
10851;SDS011;5479;52.046;6.314;2023-07-28T14:27:16;7.15;;;5.70;;
10851;SDS011;5479;52.046;6.314;2023-07-28T14:29:44;8.18;;;6.35;;
10851;SDS011;5479;52.046;6.314;2023-07-28T14:32:11;7.97;;;5.75;;
10851;SDS011;5479;52.046;6.314;2023-07-28T14:34:39;6.90;;;6.05;;
10851;SDS011;5479;52.046;6.314;2023-07-28T14:37:08;9.10;;;6.18;;
10851;SDS011;5479;52.046;6.314;2023-07-28T14:39:37;8.63;;;6.28;;
10851;SDS011;5479;52.046;6.314;2023-07-28T14:42:05;7.30;;;5.90;;
10851;SDS011;5479;52.046;6.314;2023-07-28T14:44:34;6.30;;;5.50;;
10851;SDS011;5479;52.046;6.314;2023-07-28T14:47:02;6.32;;;5.22;;
10851;SDS011;5479;52.046;6.314;2023-07-28T14:49:30;7.03;;;5.53;;
10851;SDS011;5479;52.046;6.314;2023-07-28T14:51:58;6.60;;;5.03;;